createdAt,value
2018-02-01T00:02:11.612Z,91.50
2018-02-01T00:04:42.141Z,91.90
2018-02-01T00:07:12.461Z,91.90
2018-02-01T00:09:42.380Z,91.70
2018-02-01T00:12:12.091Z,91.70
2018-02-01T00:14:41.794Z,91.70
2018-02-01T00:17:11.716Z,91.60
2018-02-01T00:19:42.239Z,91.60
2018-02-01T00:22:16.452Z,91.60
2018-02-01T00:24:46.777Z,91.50
2018-02-01T00:27:16.486Z,91.70
2018-02-01T00:29:46.970Z,91.70
2018-02-01T00:32:16.725Z,91.70
2018-02-01T00:34:47.950Z,91.80
2018-02-01T00:37:17.729Z,91.80
2018-02-01T00:39:47.493Z,91.70
2018-02-01T00:42:18.030Z,91.80
2018-02-01T00:44:47.734Z,91.80
2018-02-01T00:47:17.850Z,91.70
2018-02-01T00:49:47.558Z,91.80
2018-02-01T00:52:17.268Z,91.80
2018-02-01T00:54:47.185Z,91.90
2018-02-01T00:57:17.713Z,91.90
2018-02-01T00:59:47.423Z,91.90
2018-02-01T01:02:17.082Z,91.70
2018-02-01T01:04:46.839Z,91.70
2018-02-01T01:07:16.890Z,91.80
2018-02-01T01:09:47.285Z,91.80
2018-02-01T01:12:16.993Z,91.70
2018-02-01T01:14:46.703Z,91.70
2018-02-01T01:17:16.412Z,91.70
2018-02-01T01:19:46.515Z,91.70
2018-02-01T01:22:16.242Z,91.80
2018-02-01T01:24:47.588Z,91.70
2018-02-01T01:27:17.298Z,91.70
2018-02-01T01:29:47.012Z,91.70
2018-02-01T01:32:16.864Z,91.60
2018-02-01T01:34:46.783Z,91.80
2018-02-01T01:37:16.696Z,91.80
2018-02-01T01:39:46.460Z,91.90
2018-02-01T01:42:16.171Z,91.90
2018-02-01T01:44:45.879Z,91.80
2018-02-01T01:47:15.795Z,91.90
2018-02-01T01:49:46.323Z,91.90
2018-02-01T01:52:16.033Z,91.90
2018-02-01T01:54:45.742Z,91.90
2018-02-01T01:57:15.596Z,91.80
2018-02-01T01:59:45.365Z,91.80
2018-02-01T02:02:15.281Z,91.80
2018-02-01T02:04:45.200Z,91.90
2018-02-01T02:07:15.108Z,91.80
2018-02-01T02:09:44.819Z,92.10
2018-02-01T02:12:14.530Z,91.60
2018-02-01T02:14:44.238Z,91.70
2018-02-01T02:17:14.562Z,91.90
2018-02-01T02:19:44.271Z,91.80
2018-02-01T02:22:13.990Z,92.00
2018-02-01T02:24:43.691Z,91.80
2018-02-01T02:27:13.401Z,92.00
2018-02-01T02:29:43.109Z,91.80
2018-02-01T02:32:21.575Z,91.70
2018-02-01T02:34:51.335Z,91.90
2018-02-01T02:37:21.196Z,91.80
2018-02-01T02:39:51.984Z,91.80
2018-02-01T02:42:21.693Z,91.90
2018-02-01T02:44:52.221Z,92.00
2018-02-01T02:47:22.135Z,92.00
2018-02-01T02:49:51.847Z,92.00
2018-02-01T02:52:21.558Z,91.90
2018-02-01T02:54:51.264Z,91.90
2018-02-01T02:57:21.184Z,91.90
2018-02-01T02:59:50.890Z,91.90
2018-02-01T03:02:20.812Z,91.90
2018-02-01T03:04:52.356Z,91.90
2018-02-01T03:07:22.116Z,91.90
2018-02-01T03:09:51.776Z,91.90
2018-02-01T03:12:21.484Z,92.00
2018-02-01T03:14:51.747Z,92.00
2018-02-01T03:17:22.133Z,91.90
2018-02-01T03:19:51.843Z,91.90
2018-02-01T03:22:21.551Z,91.90
2018-02-01T03:24:51.264Z,92.00
2018-02-01T03:27:21.175Z,92.00
2018-02-01T03:29:51.089Z,91.90
2018-02-01T03:32:20.799Z,92.00
2018-02-01T03:34:50.469Z,92.00
2018-02-01T03:37:20.219Z,92.10
2018-02-01T03:39:50.136Z,92.00
2018-02-01T03:42:20.663Z,92.00
2018-02-01T03:44:52.015Z,92.10
2018-02-01T03:47:21.719Z,92.00
2018-02-01T03:49:51.531Z,92.00
2018-02-01T03:52:21.242Z,92.10
2018-02-01T03:54:50.975Z,92.00
2018-02-01T03:57:20.661Z,92.10
2018-02-01T03:59:50.370Z,92.10
2018-02-01T04:02:21.923Z,92.10
2018-02-01T04:04:51.632Z,92.10
2018-02-01T04:07:21.341Z,92.10
2018-02-01T04:09:51.052Z,92.10
2018-02-01T04:12:20.965Z,92.10
2018-02-01T04:14:50.829Z,92.20
2018-02-01T04:17:21.000Z,92.20
2018-02-01T04:19:50.914Z,92.20
2018-02-01T04:22:20.828Z,92.20
2018-02-01T04:24:50.538Z,92.20
2018-02-01T04:27:20.248Z,92.20
2018-02-01T04:29:50.162Z,92.10
2018-02-01T04:32:19.872Z,92.10
2018-02-01T04:34:50.400Z,92.20
2018-02-01T04:37:20.322Z,92.20
2018-02-01T04:39:50.031Z,92.20
2018-02-01T04:42:21.167Z,92.20
2018-02-01T04:44:51.696Z,92.30
2018-02-01T04:47:21.405Z,92.20
2018-02-01T04:49:51.265Z,92.20
2018-02-01T04:52:21.033Z,92.20
2018-02-01T04:54:50.739Z,92.20
2018-02-01T04:57:21.268Z,92.20
2018-02-01T04:59:50.977Z,92.20
2018-02-01T05:02:21.712Z,92.60
2018-02-01T05:04:52.239Z,92.20
2018-02-01T05:07:22.973Z,92.20
2018-02-01T05:09:52.628Z,92.20
2018-02-01T05:12:22.396Z,92.20
2018-02-01T05:14:52.104Z,92.20
2018-02-01T05:17:21.814Z,92.20
2018-02-01T05:19:51.654Z,92.10
2018-02-01T05:22:22.051Z,92.20
2018-02-01T05:24:51.965Z,92.20
2018-02-01T05:27:21.879Z,92.20
2018-02-01T05:29:51.717Z,92.30
2018-02-01T05:32:22.322Z,92.20
2018-02-01T05:34:52.033Z,92.20
2018-02-01T05:37:21.741Z,92.20
2018-02-01T05:39:51.456Z,92.40
2018-02-01T05:42:21.366Z,92.20
2018-02-01T05:44:51.075Z,92.30
2018-02-01T05:47:20.989Z,92.30
2018-02-01T05:49:50.908Z,92.30
2018-02-01T05:52:20.613Z,92.20
2018-02-01T05:54:50.326Z,92.30
2018-02-01T05:57:20.034Z,92.30
2018-02-01T05:59:49.948Z,92.40
2018-02-01T06:02:20.480Z,92.30
2018-02-01T06:04:50.188Z,92.40
2018-02-01T06:07:20.923Z,92.30
2018-02-01T06:09:50.836Z,92.30
2018-02-01T06:12:21.400Z,92.30
2018-02-01T06:14:51.191Z,92.30
2018-02-01T06:17:21.814Z,92.40
2018-02-01T06:19:51.725Z,92.40
2018-02-01T06:22:21.429Z,92.30
2018-02-01T06:24:51.343Z,92.30
2018-02-01T06:27:21.052Z,92.70
2018-02-01T06:29:50.770Z,92.40
2018-02-01T06:32:20.885Z,92.40
2018-02-01T06:34:50.796Z,92.40
2018-02-01T06:37:21.186Z,92.40
2018-02-01T06:39:50.831Z,92.40
2018-02-01T06:42:21.358Z,92.40
2018-02-01T06:44:51.068Z,92.40
2018-02-01T06:47:20.982Z,92.40
2018-02-01T06:49:50.693Z,92.40
2018-02-01T06:52:20.548Z,92.50
2018-02-01T06:54:50.451Z,92.40
2018-02-01T06:57:21.050Z,92.50
2018-02-01T06:59:50.964Z,92.40
2018-02-01T07:02:20.820Z,92.50
2018-02-01T07:04:50.587Z,92.40
2018-02-01T07:07:20.443Z,92.40
2018-02-01T07:09:50.212Z,92.50
2018-02-01T07:12:20.040Z,92.50
2018-02-01T07:14:50.624Z,92.50
2018-02-01T07:17:20.301Z,92.50
2018-02-01T07:19:50.892Z,92.80
2018-02-01T07:22:20.602Z,92.50
2018-02-01T07:24:50.312Z,92.50
2018-02-01T07:27:20.021Z,92.50
2018-02-01T07:29:49.731Z,92.50
2018-02-01T07:32:19.448Z,92.50
2018-02-01T07:34:49.673Z,92.60
2018-02-01T07:37:19.680Z,92.50
2018-02-01T07:39:49.552Z,92.50
2018-02-01T07:42:19.301Z,92.50
2018-02-01T07:44:49.833Z,92.50
2018-02-01T07:47:19.745Z,92.50
2018-02-01T07:49:49.658Z,92.50
2018-02-01T07:52:20.188Z,92.50
2018-02-01T07:54:50.103Z,92.50
2018-02-01T07:57:20.631Z,92.80
2018-02-01T07:59:50.692Z,92.50
2018-02-01T08:02:21.075Z,92.50
2018-02-01T08:04:50.784Z,92.50
2018-02-01T08:07:20.441Z,92.50
2018-02-01T08:09:50.205Z,92.50
2018-02-01T08:12:19.912Z,92.60
2018-02-01T08:14:49.679Z,92.60
2018-02-01T08:17:19.331Z,92.60
2018-02-01T08:19:49.200Z,92.60
2018-02-01T08:22:19.160Z,92.60
2018-02-01T08:24:50.260Z,92.60
2018-02-01T08:27:20.016Z,92.60
2018-02-01T08:29:49.720Z,92.60
2018-02-01T08:32:21.083Z,92.70
2018-02-01T08:34:50.984Z,92.60
2018-02-01T08:37:20.695Z,92.70
2018-02-01T08:39:50.608Z,92.70
2018-02-01T08:42:20.317Z,92.70
2018-02-01T08:44:50.979Z,92.90
2018-02-01T08:47:21.505Z,92.70
2018-02-01T08:49:52.318Z,92.70
2018-02-01T08:52:22.994Z,92.70
2018-02-01T08:54:52.759Z,92.70
2018-02-01T08:57:22.612Z,92.70
2018-02-01T08:59:52.380Z,92.70
2018-02-01T09:02:22.247Z,92.70
2018-02-01T09:04:52.211Z,92.70
2018-02-01T09:07:22.790Z,92.70
2018-02-01T09:09:52.652Z,92.70
2018-02-01T09:12:22.759Z,92.60
2018-02-01T09:14:52.693Z,92.70
2018-02-01T09:17:22.601Z,92.70
2018-02-01T09:19:52.457Z,92.70
2018-02-01T09:22:22.223Z,92.80
2018-02-01T09:24:52.962Z,92.70
2018-02-01T09:27:23.453Z,92.70
2018-02-01T09:29:53.402Z,92.70
2018-02-01T09:32:23.322Z,92.80
2018-02-01T09:34:53.148Z,92.80
2018-02-01T09:37:23.731Z,92.70
2018-02-01T09:39:53.503Z,92.80
2018-02-01T09:42:23.383Z,92.70
2018-02-01T09:44:53.301Z,92.80
2018-02-01T09:47:23.217Z,92.70
2018-02-01T09:49:53.337Z,92.90
2018-02-01T09:52:23.244Z,92.80
2018-02-01T09:54:54.591Z,92.80
2018-02-01T09:57:25.326Z,92.80
2018-02-01T09:59:55.190Z,92.80
2018-02-01T10:02:25.154Z,92.90
2018-02-01T10:04:55.071Z,92.90
2018-02-01T10:07:25.803Z,92.70
2018-02-01T10:09:55.512Z,92.70
2018-02-01T10:12:25.426Z,93.10
2018-02-01T10:14:55.339Z,92.80
2018-02-01T10:17:25.256Z,92.80
2018-02-01T10:19:55.169Z,92.90
2018-02-01T10:22:25.158Z,92.70
2018-02-01T10:24:55.201Z,92.70
2018-02-01T10:27:25.530Z,92.70
2018-02-01T10:29:55.441Z,92.70
2018-02-01T10:32:25.723Z,92.60
2018-02-01T10:34:55.677Z,92.60
2018-02-01T10:37:26.617Z,92.60
2018-02-01T10:39:56.530Z,92.60
2018-02-01T10:42:26.454Z,92.70
2018-02-01T10:44:56.359Z,92.70
2018-02-01T10:47:26.480Z,93.00
2018-02-01T10:49:57.828Z,92.80
2018-02-01T10:52:27.740Z,92.80
2018-02-01T10:54:57.603Z,92.80
2018-02-01T10:57:27.635Z,92.90
2018-02-01T10:59:57.502Z,92.90
2018-02-01T11:02:27.603Z,93.00
2018-02-01T11:04:57.368Z,93.00
2018-02-01T11:07:27.228Z,93.00
2018-02-01T11:09:57.141Z,92.90
2018-02-01T11:12:27.055Z,93.20
2018-02-01T11:14:56.970Z,92.90
2018-02-01T11:17:27.704Z,93.00
2018-02-01T11:19:59.260Z,93.00
2018-02-01T11:22:28.965Z,93.00
2018-02-01T11:24:59.704Z,92.90
2018-02-01T11:27:30.231Z,92.90
2018-02-01T11:30:00.112Z,92.90
2018-02-01T11:32:29.928Z,93.00
2018-02-01T11:34:59.779Z,93.00
2018-02-01T11:37:29.903Z,93.00
2018-02-01T11:39:59.759Z,93.00
2018-02-01T11:42:29.714Z,93.00
2018-02-01T11:45:01.062Z,93.00
2018-02-01T11:47:31.390Z,93.00
2018-02-01T11:50:01.097Z,93.00
2018-02-01T11:52:31.164Z,93.00
2018-02-01T11:55:01.143Z,93.00
2018-02-01T11:57:31.455Z,93.00
2018-02-01T12:00:03.006Z,93.00
2018-02-01T12:02:32.930Z,93.00
2018-02-01T12:05:02.698Z,93.00
2018-02-01T12:07:32.622Z,93.10
2018-02-01T12:10:02.664Z,93.00
2018-02-01T12:12:32.578Z,93.10
2018-02-01T12:15:03.320Z,93.00
2018-02-01T12:17:33.021Z,93.00
2018-02-01T12:20:03.140Z,93.00
2018-02-01T12:22:32.853Z,93.10
2018-02-01T12:25:02.774Z,93.10
2018-02-01T12:27:32.492Z,93.20
2018-02-01T12:30:02.594Z,93.00
2018-02-01T12:32:33.329Z,92.90
2018-02-01T12:35:03.242Z,92.90
2018-02-01T12:37:33.543Z,93.00
2018-02-01T12:40:03.479Z,92.90
2018-02-01T12:42:35.033Z,92.80
2018-02-01T12:45:04.947Z,92.80
2018-02-01T12:47:36.502Z,92.30
2018-02-01T12:50:06.414Z,92.30
2018-02-01T12:52:36.328Z,92.10
2018-02-01T12:55:07.678Z,92.00
2018-02-01T12:57:37.795Z,92.00
2018-02-01T13:00:07.797Z,92.10
2018-02-01T13:02:37.624Z,92.20
2018-02-01T13:05:07.549Z,92.30
2018-02-01T13:07:37.453Z,92.20
2018-02-01T13:10:08.807Z,92.30
2018-02-01T13:12:38.923Z,92.30
2018-02-01T13:15:08.838Z,92.30
2018-02-01T13:17:38.750Z,92.30
2018-02-01T13:20:08.599Z,92.20
2018-02-01T13:22:38.527Z,92.20
2018-02-01T13:25:08.287Z,92.20
2018-02-01T13:27:39.236Z,92.10
2018-02-01T13:30:09.141Z,92.00
2018-02-01T13:32:39.055Z,92.00
2018-02-01T13:35:08.970Z,92.00
2018-02-01T13:37:38.883Z,91.90
2018-02-01T13:40:08.594Z,91.80
2018-02-01T13:42:38.508Z,91.90
2018-02-01T13:45:08.460Z,91.90
2018-02-01T13:47:38.338Z,91.90
2018-02-01T13:50:08.249Z,91.90
2018-02-01T13:52:37.959Z,92.00
2018-02-01T13:55:07.626Z,92.00
2018-02-01T13:57:37.338Z,91.90
2018-02-01T14:00:07.092Z,91.60
2018-02-01T14:02:38.804Z,91.60
2018-02-01T14:05:08.555Z,91.60
2018-02-01T14:07:38.609Z,91.60
2018-02-01T14:10:09.204Z,91.80
2018-02-01T14:12:39.732Z,91.80
2018-02-01T14:15:09.660Z,91.70
2018-02-01T14:17:39.359Z,91.80
2018-02-01T14:20:09.273Z,91.80
2018-02-01T14:22:39.392Z,91.80
2018-02-01T14:25:09.169Z,91.70
2018-02-01T14:27:39.019Z,91.90
2018-02-01T14:30:08.725Z,91.80
2018-02-01T14:32:38.441Z,91.80
2018-02-01T14:35:08.965Z,91.50
2018-02-01T14:37:38.671Z,91.50
2018-02-01T14:40:08.532Z,91.60
2018-02-01T14:42:38.500Z,91.70
2018-02-01T14:45:09.234Z,91.60
2018-02-01T14:47:38.944Z,91.60
2018-02-01T14:50:10.236Z,91.50
2018-02-01T14:52:40.161Z,91.50
2018-02-01T14:55:09.924Z,91.50
2018-02-01T14:57:39.884Z,91.50
2018-02-01T15:00:09.952Z,91.60
2018-02-01T15:02:39.798Z,91.60
2018-02-01T15:05:09.991Z,91.50
2018-02-01T15:07:39.693Z,91.50
2018-02-01T15:10:09.608Z,91.60
2018-02-01T15:12:39.316Z,91.50
2018-02-01T15:15:09.077Z,91.60
2018-02-01T15:17:38.947Z,91.60
2018-02-01T15:20:10.145Z,91.60
2018-02-01T15:22:40.084Z,91.60
2018-02-01T15:25:09.916Z,91.60
2018-02-01T15:27:39.828Z,91.60
2018-02-01T15:30:09.538Z,91.50
2018-02-01T15:32:39.451Z,91.50
2018-02-01T15:35:09.160Z,91.50
2018-02-01T15:37:40.612Z,91.30
2018-02-01T15:40:11.037Z,91.30
2018-02-01T15:42:41.566Z,91.40
2018-02-01T15:45:12.299Z,91.40
2018-02-01T15:47:42.212Z,91.40
2018-02-01T15:50:12.041Z,91.50
2018-02-01T15:52:42.001Z,91.50
2018-02-01T15:55:11.962Z,91.50
2018-02-01T15:57:41.996Z,91.50
2018-02-01T16:00:11.978Z,91.30
2018-02-01T16:02:42.109Z,91.40
2018-02-01T16:05:12.025Z,91.30
2018-02-01T16:07:42.191Z,91.40
2018-02-01T16:10:12.058Z,91.40
2018-02-01T16:12:41.976Z,91.30
2018-02-01T16:15:12.911Z,91.50
2018-02-01T16:17:42.865Z,91.50
2018-02-01T16:20:12.944Z,91.50
2018-02-01T16:22:44.704Z,91.50
2018-02-01T16:25:14.632Z,91.50
2018-02-01T16:27:44.530Z,91.60
2018-02-01T16:30:14.414Z,91.60
2018-02-01T16:32:44.229Z,91.60
2018-02-01T16:35:14.241Z,91.60
2018-02-01T16:37:44.808Z,91.60
2018-02-01T16:40:15.487Z,91.60
2018-02-01T16:42:45.330Z,91.70
2018-02-01T16:45:15.363Z,91.70
2018-02-01T16:47:45.188Z,91.70
2018-02-01T16:50:15.193Z,91.60
2018-02-01T16:52:45.408Z,91.70
2018-02-01T16:55:15.158Z,91.70
2018-02-01T16:57:46.021Z,91.70
2018-02-01T17:00:16.079Z,91.70
2018-02-01T17:02:46.376Z,91.70
2018-02-01T17:05:16.350Z,91.70
2018-02-01T17:07:46.232Z,91.70
2018-02-01T17:10:16.225Z,91.70
2018-02-01T17:12:46.326Z,91.70
2018-02-01T17:15:16.395Z,91.80
2018-02-01T17:17:46.913Z,91.70
2018-02-01T17:20:18.499Z,91.70
2018-02-01T17:22:48.385Z,91.70
2018-02-01T17:25:18.656Z,91.80
2018-02-01T17:27:48.691Z,91.80
2018-02-01T17:30:18.694Z,91.80
2018-02-01T17:32:48.654Z,91.90
2018-02-01T17:35:18.785Z,91.80
2018-02-01T17:37:48.687Z,91.80
2018-02-01T17:40:18.605Z,91.80
2018-02-01T17:42:49.947Z,91.90
2018-02-01T17:45:19.769Z,91.90
2018-02-01T17:47:51.367Z,91.90
2018-02-01T17:50:21.312Z,91.80
2018-02-01T17:52:51.450Z,91.80
2018-02-01T17:55:21.568Z,91.90
2018-02-01T17:57:51.483Z,91.80
2018-02-01T18:00:21.822Z,91.90
2018-02-01T18:02:51.750Z,91.90
2018-02-01T18:05:22.046Z,91.90
2018-02-01T18:07:51.959Z,92.00
2018-02-01T18:10:22.624Z,92.00
2018-02-01T18:12:52.502Z,91.90
2018-02-01T18:15:22.316Z,91.90
2018-02-01T18:17:52.286Z,92.00
2018-02-01T18:20:22.973Z,92.00
2018-02-01T18:22:53.083Z,92.00
2018-02-01T18:25:22.998Z,92.00
2018-02-01T18:27:53.080Z,92.00
2018-02-01T18:30:23.044Z,92.00
2018-02-01T18:32:53.153Z,91.90
2018-02-01T18:35:24.705Z,92.00
2018-02-01T18:37:54.603Z,92.00
2018-02-01T18:40:24.739Z,91.90
2018-02-01T18:42:56.250Z,92.00
2018-02-01T18:45:26.157Z,92.00
2018-02-01T18:47:56.114Z,92.10
2018-02-01T18:50:26.034Z,92.10
2018-02-01T18:52:56.135Z,92.10
2018-02-01T18:55:26.078Z,92.90
2018-02-01T18:57:55.984Z,93.20
2018-02-01T19:00:25.897Z,93.20
2018-02-01T19:02:55.865Z,93.30
2018-02-01T19:05:25.944Z,93.50
2018-02-01T19:07:56.219Z,93.40
2018-02-01T19:10:26.323Z,93.40
2018-02-01T19:12:56.491Z,93.30
2018-02-01T19:15:26.408Z,93.20
2018-02-01T19:17:56.321Z,93.40
2018-02-01T19:20:26.438Z,93.40
2018-02-01T19:22:58.205Z,93.20
2018-02-01T19:25:28.315Z,93.50
2018-02-01T19:27:59.832Z,93.00
2018-02-01T19:30:30.009Z,93.00
2018-02-01T19:33:00.094Z,93.10
2018-02-01T19:35:29.939Z,93.00
2018-02-01T19:38:00.551Z,92.90
2018-02-01T19:40:30.671Z,92.90
2018-02-01T19:43:00.589Z,92.90
2018-02-01T19:45:31.329Z,93.00
2018-02-01T19:48:01.440Z,92.80
2018-02-01T19:50:31.867Z,92.80
2018-02-01T19:53:02.085Z,92.80
2018-02-01T19:55:32.158Z,92.80
2018-02-01T19:58:02.344Z,92.80
2018-02-01T20:00:32.405Z,92.70
2018-02-01T20:03:02.356Z,92.60
2018-02-01T20:05:33.978Z,92.60
2018-02-01T20:08:04.211Z,92.60
2018-02-01T20:10:34.311Z,92.50
2018-02-01T20:13:04.272Z,92.50
2018-02-01T20:15:35.788Z,92.40
2018-02-01T20:18:05.706Z,92.40
2018-02-01T20:20:35.833Z,92.50
2018-02-01T20:23:05.925Z,92.60
2018-02-01T20:25:36.585Z,92.50
2018-02-01T20:28:06.792Z,92.40
2018-02-01T20:30:37.762Z,92.50
2018-02-01T20:34:10.783Z,92.40
2018-02-01T20:36:41.292Z,92.40
2018-02-01T20:39:12.221Z,92.30
2018-02-01T20:41:42.142Z,92.30
2018-02-01T20:44:12.255Z,92.30
2018-02-01T20:46:43.039Z,92.30
2018-02-01T20:49:13.558Z,92.30
2018-02-01T20:51:43.814Z,92.10
2018-02-01T20:54:13.723Z,92.10
2018-02-01T20:56:43.475Z,92.30
2018-02-01T20:59:13.642Z,92.20
2018-02-01T21:01:43.712Z,92.20
2018-02-01T21:04:13.788Z,92.30
2018-02-01T21:06:44.129Z,92.00
2018-02-01T21:09:14.062Z,92.10
2018-02-01T21:11:43.974Z,92.10
2018-02-01T21:14:14.505Z,92.20
2018-02-01T21:16:44.583Z,92.20
2018-02-01T21:19:14.399Z,92.10
2018-02-01T21:21:44.453Z,92.30
2018-02-01T21:24:14.367Z,92.10
2018-02-01T21:26:44.248Z,92.20
2018-02-01T21:29:14.196Z,92.10
2018-02-01T21:31:45.321Z,92.20
2018-02-01T21:34:15.707Z,92.20
2018-02-01T21:36:45.788Z,92.20
2018-02-01T21:39:15.697Z,92.10
2018-02-01T21:41:46.224Z,92.30
2018-02-01T21:44:16.087Z,92.10
2018-02-01T21:46:46.257Z,92.10
2018-02-01T21:49:16.271Z,92.20
2018-02-01T21:51:46.291Z,92.10
2018-02-01T21:54:16.411Z,92.10
2018-02-01T21:56:47.490Z,92.20
2018-02-01T21:59:19.573Z,92.10
2018-02-01T22:01:50.249Z,92.10
2018-02-01T22:04:20.128Z,92.20
2018-02-01T22:06:49.883Z,92.20
2018-02-01T22:09:19.789Z,92.20
2018-02-01T22:11:49.498Z,92.20
2018-02-01T22:14:19.411Z,92.20
2018-02-01T22:16:49.532Z,92.30
2018-02-01T22:19:19.239Z,92.20
2018-02-01T22:21:49.273Z,92.30
2018-02-01T22:24:19.894Z,92.40
2018-02-01T22:26:49.803Z,92.30
2018-02-01T22:29:19.513Z,92.30
2018-02-01T22:31:49.483Z,92.40
2018-02-01T22:34:19.751Z,92.40
2018-02-01T22:36:49.844Z,92.50
2018-02-01T22:39:19.735Z,92.60
2018-02-01T22:41:49.443Z,92.60
2018-02-01T22:44:19.616Z,92.60
2018-02-01T22:46:49.734Z,92.60
2018-02-01T22:49:20.065Z,92.60
2018-02-01T22:51:50.176Z,92.60
2018-02-01T22:54:19.884Z,92.60
2018-02-01T22:56:49.833Z,92.70
2018-02-01T22:59:20.123Z,92.70
2018-02-01T23:01:50.037Z,92.60
2018-02-01T23:04:19.960Z,92.60
2018-02-01T23:06:50.071Z,92.60
2018-02-01T23:09:19.781Z,92.60
2018-02-01T23:11:49.490Z,92.60
2018-02-01T23:14:19.608Z,92.60
2018-02-01T23:16:49.728Z,92.60
2018-02-01T23:19:19.648Z,92.60
2018-02-01T23:21:49.559Z,92.60
2018-02-01T23:24:19.266Z,92.60
2018-02-01T23:26:49.182Z,92.60
2018-02-01T23:29:20.534Z,92.60
2018-02-01T23:31:50.244Z,92.60
2018-02-01T23:34:19.897Z,92.60
2018-02-01T23:36:49.660Z,92.60
2018-02-01T23:39:21.211Z,92.70
2018-02-01T23:41:50.866Z,92.70
2018-02-01T23:44:20.795Z,92.60
2018-02-01T23:46:50.953Z,92.60
2018-02-01T23:49:20.877Z,92.70
2018-02-01T23:51:50.577Z,92.60
2018-02-01T23:54:21.925Z,92.60
2018-02-01T23:56:51.840Z,92.60
2018-02-01T23:59:21.753Z,92.70
